sensor_id;sensor_type;location;lat;lon;timestamp;temperature;humidity
1976;DHT22;988;48.016;7.800;2023-06-05T00:00:41;16.60;99.90
1976;DHT22;988;48.016;7.800;2023-06-05T00:03:07;16.50;99.90
1976;DHT22;988;48.016;7.800;2023-06-05T00:05:33;16.50;99.90
1976;DHT22;988;48.016;7.800;2023-06-05T00:08:00;16.40;99.90
1976;DHT22;988;48.016;7.800;2023-06-05T00:10:25;16.30;99.90
1976;DHT22;988;48.016;7.800;2023-06-05T00:12:51;16.30;99.90
1976;DHT22;988;48.016;7.800;2023-06-05T00:15:16;16.20;99.90
1976;DHT22;988;48.016;7.800;2023-06-05T00:17:42;16.20;99.90
1976;DHT22;988;48.016;7.800;2023-06-05T00:20:08;16.10;99.90
1976;DHT22;988;48.016;7.800;2023-06-05T00:22:36;16.00;99.90
1976;DHT22;988;48.016;7.800;2023-06-05T00:25:03;15.90;99.90
1976;DHT22;988;48.016;7.800;2023-06-05T00:27:28;15.80;99.90
1976;DHT22;988;48.016;7.800;2023-06-05T00:29:54;15.70;99.90
1976;DHT22;988;48.016;7.800;2023-06-05T00:32:20;15.70;99.90
1976;DHT22;988;48.016;7.800;2023-06-05T00:34:46;15.70;99.90
1976;DHT22;988;48.016;7.800;2023-06-05T00:37:12;15.60;99.90
1976;DHT22;988;48.016;7.800;2023-06-05T00:39:41;15.60;99.90
1976;DHT22;988;48.016;7.800;2023-06-05T00:42:07;15.60;99.90
1976;DHT22;988;48.016;7.800;2023-06-05T00:44:34;15.60;99.90
1976;DHT22;988;48.016;7.800;2023-06-05T00:47:00;15.60;99.90
1976;DHT22;988;48.016;7.800;2023-06-05T00:49:26;15.60;99.90
1976;DHT22;988;48.016;7.800;2023-06-05T00:51:52;15.60;99.90
1976;DHT22;988;48.016;7.800;2023-06-05T00:54:18;15.50;99.90
1976;DHT22;988;48.016;7.800;2023-06-05T00:56:46;15.50;99.90
1976;DHT22;988;48.016;7.800;2023-06-05T00:59:12;15.40;99.90
1976;DHT22;988;48.016;7.800;2023-06-05T01:01:40;15.40;99.90
1976;DHT22;988;48.016;7.800;2023-06-05T01:04:08;15.40;99.90
1976;DHT22;988;48.016;7.800;2023-06-05T01:06:34;15.40;99.90
1976;DHT22;988;48.016;7.800;2023-06-05T01:09:00;15.30;99.90
1976;DHT22;988;48.016;7.800;2023-06-05T01:14:33;15.30;99.90
1976;DHT22;988;48.016;7.800;2023-06-05T01:17:02;15.10;99.90
1976;DHT22;988;48.016;7.800;2023-06-05T01:19:28;15.10;99.90
1976;DHT22;988;48.016;7.800;2023-06-05T01:21:56;15.10;99.90
1976;DHT22;988;48.016;7.800;2023-06-05T01:24:22;15.10;99.90
1976;DHT22;988;48.016;7.800;2023-06-05T01:32:05;15.10;99.90
1976;DHT22;988;48.016;7.800;2023-06-05T01:34:32;15.10;99.90
1976;DHT22;988;48.016;7.800;2023-06-05T01:37:00;15.00;99.90
1976;DHT22;988;48.016;7.800;2023-06-05T01:39:26;14.90;99.90
1976;DHT22;988;48.016;7.800;2023-06-05T01:41:54;14.80;99.90
1976;DHT22;988;48.016;7.800;2023-06-05T01:44:20;14.80;99.90
1976;DHT22;988;48.016;7.800;2023-06-05T01:46:47;14.80;99.90
1976;DHT22;988;48.016;7.800;2023-06-05T01:49:13;14.70;99.90
1976;DHT22;988;48.016;7.800;2023-06-05T01:51:38;14.70;99.90
1976;DHT22;988;48.016;7.800;2023-06-05T01:54:04;14.60;99.90
1976;DHT22;988;48.016;7.800;2023-06-05T01:56:31;14.60;99.90
1976;DHT22;988;48.016;7.800;2023-06-05T01:58:58;14.50;99.90
1976;DHT22;988;48.016;7.800;2023-06-05T02:01:23;14.50;99.90
1976;DHT22;988;48.016;7.800;2023-06-05T02:03:49;14.60;99.90
1976;DHT22;988;48.016;7.800;2023-06-05T02:06:16;14.60;99.90
1976;DHT22;988;48.016;7.800;2023-06-05T02:08:42;14.60;99.90
1976;DHT22;988;48.016;7.800;2023-06-05T02:11:08;14.50;99.90
1976;DHT22;988;48.016;7.800;2023-06-05T02:13:37;14.50;99.90
1976;DHT22;988;48.016;7.800;2023-06-05T02:16:04;14.40;99.90
1976;DHT22;988;48.016;7.800;2023-06-05T02:18:30;14.30;99.90
1976;DHT22;988;48.016;7.800;2023-06-05T02:20:56;14.30;99.90
1976;DHT22;988;48.016;7.800;2023-06-05T02:23:22;14.30;99.90
1976;DHT22;988;48.016;7.800;2023-06-05T02:25:48;14.40;99.90
1976;DHT22;988;48.016;7.800;2023-06-05T02:28:14;14.30;99.90
1976;DHT22;988;48.016;7.800;2023-06-05T02:30:41;14.20;99.90
1976;DHT22;988;48.016;7.800;2023-06-05T02:33:10;14.20;99.90
1976;DHT22;988;48.016;7.800;2023-06-05T02:35:36;14.10;99.90
1976;DHT22;988;48.016;7.800;2023-06-05T02:38:02;14.10;99.90
1976;DHT22;988;48.016;7.800;2023-06-05T02:40:31;13.90;99.90
1976;DHT22;988;48.016;7.800;2023-06-05T02:42:56;14.00;99.90
1976;DHT22;988;48.016;7.800;2023-06-05T02:45:22;14.00;99.90
1976;DHT22;988;48.016;7.800;2023-06-05T02:47:50;13.90;99.90
1976;DHT22;988;48.016;7.800;2023-06-05T02:50:16;13.90;99.90
1976;DHT22;988;48.016;7.800;2023-06-05T02:52:41;13.90;99.90
1976;DHT22;988;48.016;7.800;2023-06-05T02:55:07;14.00;99.90
1976;DHT22;988;48.016;7.800;2023-06-05T02:57:33;13.90;99.90
1976;DHT22;988;48.016;7.800;2023-06-05T03:00:10;13.90;99.90
1976;DHT22;988;48.016;7.800;2023-06-05T03:02:40;13.80;99.90
1976;DHT22;988;48.016;7.800;2023-06-05T03:05:06;13.80;99.90
1976;DHT22;988;48.016;7.800;2023-06-05T03:07:32;13.70;99.90
1976;DHT22;988;48.016;7.800;2023-06-05T03:10:00;13.60;99.90
1976;DHT22;988;48.016;7.800;2023-06-05T03:12:26;13.60;99.90
1976;DHT22;988;48.016;7.800;2023-06-05T03:14:52;13.60;99.90
1976;DHT22;988;48.016;7.800;2023-06-05T03:17:17;13.60;99.90
1976;DHT22;988;48.016;7.800;2023-06-05T03:19:43;13.60;99.90
1976;DHT22;988;48.016;7.800;2023-06-05T03:22:08;13.50;99.90
1976;DHT22;988;48.016;7.800;2023-06-05T03:24:34;13.50;99.90
1976;DHT22;988;48.016;7.800;2023-06-05T03:27:03;13.50;99.90
1976;DHT22;988;48.016;7.800;2023-06-05T03:29:29;13.50;99.90
1976;DHT22;988;48.016;7.800;2023-06-05T03:31:55;13.40;99.90
1976;DHT22;988;48.016;7.800;2023-06-05T03:34:21;13.30;99.90
1976;DHT22;988;48.016;7.800;2023-06-05T03:36:52;13.30;99.90
1976;DHT22;988;48.016;7.800;2023-06-05T03:39:18;13.30;99.90
1976;DHT22;988;48.016;7.800;2023-06-05T03:41:44;13.30;99.90
1976;DHT22;988;48.016;7.800;2023-06-05T03:44:09;13.40;99.90
1976;DHT22;988;48.016;7.800;2023-06-05T03:46:35;13.30;99.90
1976;DHT22;988;48.016;7.800;2023-06-05T03:49:02;13.40;99.90
1976;DHT22;988;48.016;7.800;2023-06-05T03:51:34;13.40;99.90
1976;DHT22;988;48.016;7.800;2023-06-05T03:54:00;13.40;99.90
1976;DHT22;988;48.016;7.800;2023-06-05T03:56:26;13.40;99.90
1976;DHT22;988;48.016;7.800;2023-06-05T03:58:59;13.40;99.90
1976;DHT22;988;48.016;7.800;2023-06-05T04:01:37;13.40;99.90
1976;DHT22;988;48.016;7.800;2023-06-05T04:04:06;13.40;99.90
1976;DHT22;988;48.016;7.800;2023-06-05T04:06:32;13.50;99.90
1976;DHT22;988;48.016;7.800;2023-06-05T04:08:58;13.50;99.90
1976;DHT22;988;48.016;7.800;2023-06-05T04:11:25;13.60;99.90
1976;DHT22;988;48.016;7.800;2023-06-05T04:13:54;13.60;99.90
1976;DHT22;988;48.016;7.800;2023-06-05T04:16:19;13.70;99.90
1976;DHT22;988;48.016;7.800;2023-06-05T04:18:45;13.70;99.90
1976;DHT22;988;48.016;7.800;2023-06-05T04:21:11;13.70;99.90
1976;DHT22;988;48.016;7.800;2023-06-05T04:23:37;13.70;99.90
1976;DHT22;988;48.016;7.800;2023-06-05T04:26:02;13.80;99.90
1976;DHT22;988;48.016;7.800;2023-06-05T04:28:30;13.80;99.90
1976;DHT22;988;48.016;7.800;2023-06-05T04:30:56;13.90;99.90
1976;DHT22;988;48.016;7.800;2023-06-05T04:33:22;14.00;99.90
1976;DHT22;988;48.016;7.800;2023-06-05T04:35:47;14.00;99.90
1976;DHT22;988;48.016;7.800;2023-06-05T04:38:13;14.00;99.90
1976;DHT22;988;48.016;7.800;2023-06-05T04:40:39;14.10;99.90
1976;DHT22;988;48.016;7.800;2023-06-05T04:43:04;14.20;99.90
1976;DHT22;988;48.016;7.800;2023-06-05T04:45:30;14.30;99.90
1976;DHT22;988;48.016;7.800;2023-06-05T04:47:56;14.30;99.90
1976;DHT22;988;48.016;7.800;2023-06-05T04:50:26;14.40;99.90
1976;DHT22;988;48.016;7.800;2023-06-05T04:52:53;14.50;99.90
1976;DHT22;988;48.016;7.800;2023-06-05T04:55:19;14.60;99.90
1976;DHT22;988;48.016;7.800;2023-06-05T04:57:45;14.70;99.90
1976;DHT22;988;48.016;7.800;2023-06-05T05:00:11;14.80;99.90
1976;DHT22;988;48.016;7.800;2023-06-05T05:02:37;14.80;99.90
1976;DHT22;988;48.016;7.800;2023-06-05T05:05:03;14.90;99.90
1976;DHT22;988;48.016;7.800;2023-06-05T05:07:29;15.00;99.90
1976;DHT22;988;48.016;7.800;2023-06-05T05:09:56;15.20;99.60
1976;DHT22;988;48.016;7.800;2023-06-05T05:12:21;15.30;99.00
1976;DHT22;988;48.016;7.800;2023-06-05T05:14:47;15.40;98.50
1976;DHT22;988;48.016;7.800;2023-06-05T05:17:13;15.50;98.30
1976;DHT22;988;48.016;7.800;2023-06-05T05:19:42;15.50;97.40
1976;DHT22;988;48.016;7.800;2023-06-05T05:22:08;15.60;97.50
1976;DHT22;988;48.016;7.800;2023-06-05T05:24:33;15.70;97.30
1976;DHT22;988;48.016;7.800;2023-06-05T05:27:00;15.80;96.20
1976;DHT22;988;48.016;7.800;2023-06-05T05:29:25;15.80;95.90
1976;DHT22;988;48.016;7.800;2023-06-05T05:31:52;15.80;94.90
1976;DHT22;988;48.016;7.800;2023-06-05T05:34:18;15.90;95.30
1976;DHT22;988;48.016;7.800;2023-06-05T05:36:44;15.90;94.50
1976;DHT22;988;48.016;7.800;2023-06-05T05:39:10;16.00;94.10
1976;DHT22;988;48.016;7.800;2023-06-05T05:41:35;16.10;94.20
1976;DHT22;988;48.016;7.800;2023-06-05T05:44:01;16.20;93.60
1976;DHT22;988;48.016;7.800;2023-06-05T05:46:26;16.40;93.40
1976;DHT22;988;48.016;7.800;2023-06-05T05:48:52;16.40;93.20
1976;DHT22;988;48.016;7.800;2023-06-05T05:51:19;16.50;93.10
1976;DHT22;988;48.016;7.800;2023-06-05T05:53:45;16.60;92.80
1976;DHT22;988;48.016;7.800;2023-06-05T05:56:11;16.70;92.90
1976;DHT22;988;48.016;7.800;2023-06-05T05:58:36;16.70;92.60
1976;DHT22;988;48.016;7.800;2023-06-05T06:01:02;16.70;92.40
1976;DHT22;988;48.016;7.800;2023-06-05T06:03:27;16.90;92.30
1976;DHT22;988;48.016;7.800;2023-06-05T06:05:54;16.90;92.20
1976;DHT22;988;48.016;7.800;2023-06-05T06:08:19;17.00;91.80
1976;DHT22;988;48.016;7.800;2023-06-05T06:10:46;17.10;91.20
1976;DHT22;988;48.016;7.800;2023-06-05T06:13:12;17.20;91.20
1976;DHT22;988;48.016;7.800;2023-06-05T06:15:38;17.30;91.40
1976;DHT22;988;48.016;7.800;2023-06-05T06:18:07;17.40;90.80
1976;DHT22;988;48.016;7.800;2023-06-05T06:20:32;17.40;90.40
1976;DHT22;988;48.016;7.800;2023-06-05T06:23:01;17.50;90.30
1976;DHT22;988;48.016;7.800;2023-06-05T06:25:28;17.50;90.40
1976;DHT22;988;48.016;7.800;2023-06-05T06:28:00;17.70;90.40
1976;DHT22;988;48.016;7.800;2023-06-05T06:30:26;17.80;89.40
1976;DHT22;988;48.016;7.800;2023-06-05T06:32:56;17.90;89.20
1976;DHT22;988;48.016;7.800;2023-06-05T06:35:25;18.00;89.40
1976;DHT22;988;48.016;7.800;2023-06-05T06:37:54;18.10;90.10
1976;DHT22;988;48.016;7.800;2023-06-05T06:40:22;17.90;90.10
1976;DHT22;988;48.016;7.800;2023-06-05T06:42:49;18.00;88.90
1976;DHT22;988;48.016;7.800;2023-06-05T06:45:16;18.20;88.40
1976;DHT22;988;48.016;7.800;2023-06-05T06:47:43;18.30;86.90
1976;DHT22;988;48.016;7.800;2023-06-05T06:50:08;18.30;88.60
1976;DHT22;988;48.016;7.800;2023-06-05T06:52:34;18.40;85.90
1976;DHT22;988;48.016;7.800;2023-06-05T06:55:00;18.60;87.60
1976;DHT22;988;48.016;7.800;2023-06-05T06:57:26;18.60;85.20
1976;DHT22;988;48.016;7.800;2023-06-05T06:59:52;18.90;86.00
1976;DHT22;988;48.016;7.800;2023-06-05T07:02:20;19.10;85.70
1976;DHT22;988;48.016;7.800;2023-06-05T07:04:46;19.30;84.70
1976;DHT22;988;48.016;7.800;2023-06-05T07:07:16;19.20;84.10
1976;DHT22;988;48.016;7.800;2023-06-05T07:09:44;19.20;83.50
1976;DHT22;988;48.016;7.800;2023-06-05T07:12:11;19.30;84.60
1976;DHT22;988;48.016;7.800;2023-06-05T07:14:38;19.40;85.20
1976;DHT22;988;48.016;7.800;2023-06-05T07:17:04;19.50;84.70
1976;DHT22;988;48.016;7.800;2023-06-05T07:19:31;19.70;84.10
1976;DHT22;988;48.016;7.800;2023-06-05T07:21:58;19.90;84.00
1976;DHT22;988;48.016;7.800;2023-06-05T07:24:25;20.00;83.30
1976;DHT22;988;48.016;7.800;2023-06-05T07:26:55;20.20;82.10
1976;DHT22;988;48.016;7.800;2023-06-05T07:29:21;20.40;81.30
1976;DHT22;988;48.016;7.800;2023-06-05T07:31:48;20.50;81.60
1976;DHT22;988;48.016;7.800;2023-06-05T07:34:14;20.60;79.90
1976;DHT22;988;48.016;7.800;2023-06-05T07:36:40;20.90;78.40
1976;DHT22;988;48.016;7.800;2023-06-05T07:39:06;21.20;78.10
1976;DHT22;988;48.016;7.800;2023-06-05T07:41:31;21.50;78.50
1976;DHT22;988;48.016;7.800;2023-06-05T07:43:57;22.10;77.10
1976;DHT22;988;48.016;7.800;2023-06-05T07:46:23;22.90;76.50
1976;DHT22;988;48.016;7.800;2023-06-05T07:48:48;24.10;74.10
1976;DHT22;988;48.016;7.800;2023-06-05T07:51:14;25.30;69.50
1976;DHT22;988;48.016;7.800;2023-06-05T07:53:42;26.40;64.80
1976;DHT22;988;48.016;7.800;2023-06-05T07:56:08;27.40;61.20
1976;DHT22;988;48.016;7.800;2023-06-05T07:58:34;28.30;57.80
1976;DHT22;988;48.016;7.800;2023-06-05T08:01:00;29.00;55.40
1976;DHT22;988;48.016;7.800;2023-06-05T08:03:25;30.20;52.60
1976;DHT22;988;48.016;7.800;2023-06-05T08:05:51;31.00;50.70
1976;DHT22;988;48.016;7.800;2023-06-05T08:08:17;31.30;48.60
1976;DHT22;988;48.016;7.800;2023-06-05T08:10:44;32.10;47.70
1976;DHT22;988;48.016;7.800;2023-06-05T08:13:10;33.20;46.00
1976;DHT22;988;48.016;7.800;2023-06-05T08:15:36;33.80;44.60
1976;DHT22;988;48.016;7.800;2023-06-05T08:18:02;34.60;42.40
1976;DHT22;988;48.016;7.800;2023-06-05T08:20:27;34.60;42.30
1976;DHT22;988;48.016;7.800;2023-06-05T08:22:55;35.00;40.90
1976;DHT22;988;48.016;7.800;2023-06-05T08:25:25;35.30;41.00
1976;DHT22;988;48.016;7.800;2023-06-05T08:27:52;36.00;38.90
1976;DHT22;988;48.016;7.800;2023-06-05T08:30:19;36.40;38.10
1976;DHT22;988;48.016;7.800;2023-06-05T08:32:44;37.00;36.80
1976;DHT22;988;48.016;7.800;2023-06-05T08:35:11;36.80;37.60
1976;DHT22;988;48.016;7.800;2023-06-05T08:37:37;38.10;35.90
1976;DHT22;988;48.016;7.800;2023-06-05T08:40:04;37.60;35.70
1976;DHT22;988;48.016;7.800;2023-06-05T08:42:36;38.10;35.10
1976;DHT22;988;48.016;7.800;2023-06-05T08:45:07;37.10;36.30
1976;DHT22;988;48.016;7.800;2023-06-05T08:47:36;37.40;36.30
1976;DHT22;988;48.016;7.800;2023-06-05T08:50:04;38.00;35.70
1976;DHT22;988;48.016;7.800;2023-06-05T08:52:33;39.00;34.40
1976;DHT22;988;48.016;7.800;2023-06-05T08:54:59;39.10;34.30
1976;DHT22;988;48.016;7.800;2023-06-05T08:57:25;39.80;33.90
1976;DHT22;988;48.016;7.800;2023-06-05T08:59:51;39.70;33.90
1976;DHT22;988;48.016;7.800;2023-06-05T09:02:16;40.80;32.30
1976;DHT22;988;48.016;7.800;2023-06-05T09:04:42;40.70;31.90
1976;DHT22;988;48.016;7.800;2023-06-05T09:07:08;40.60;32.30
1976;DHT22;988;48.016;7.800;2023-06-05T09:09:34;41.00;32.00
1976;DHT22;988;48.016;7.800;2023-06-05T09:12:07;39.90;32.30
1976;DHT22;988;48.016;7.800;2023-06-05T09:14:33;40.00;32.60
1976;DHT22;988;48.016;7.800;2023-06-05T09:17:00;40.60;31.60
1976;DHT22;988;48.016;7.800;2023-06-05T09:19:36;41.60;30.30
1976;DHT22;988;48.016;7.800;2023-06-05T09:22:02;42.20;30.00
1976;DHT22;988;48.016;7.800;2023-06-05T09:24:28;43.00;29.50
1976;DHT22;988;48.016;7.800;2023-06-05T09:29:25;43.50;29.20
1976;DHT22;988;48.016;7.800;2023-06-05T09:31:52;43.80;28.80
1976;DHT22;988;48.016;7.800;2023-06-05T09:34:21;44.20;27.90
1976;DHT22;988;48.016;7.800;2023-06-05T09:36:47;44.30;27.90
1976;DHT22;988;48.016;7.800;2023-06-05T09:39:17;44.60;28.40
1976;DHT22;988;48.016;7.800;2023-06-05T09:41:45;44.10;27.80
1976;DHT22;988;48.016;7.800;2023-06-05T09:44:11;43.10;28.70
1976;DHT22;988;48.016;7.800;2023-06-05T09:52:08;45.40;27.40
1976;DHT22;988;48.016;7.800;2023-06-05T09:54:36;44.90;27.90
1976;DHT22;988;48.016;7.800;2023-06-05T09:57:06;45.30;27.40
1976;DHT22;988;48.016;7.800;2023-06-05T09:59:49;46.50;27.30
1976;DHT22;988;48.016;7.800;2023-06-05T10:02:17;46.40;26.30
1976;DHT22;988;48.016;7.800;2023-06-05T10:04:57;45.40;26.90
1976;DHT22;988;48.016;7.800;2023-06-05T10:07:24;45.30;26.90
1976;DHT22;988;48.016;7.800;2023-06-05T10:09:50;44.40;27.60
1976;DHT22;988;48.016;7.800;2023-06-05T10:12:16;43.30;28.10
1976;DHT22;988;48.016;7.800;2023-06-05T10:14:43;43.30;28.40
1976;DHT22;988;48.016;7.800;2023-06-05T10:17:10;43.40;28.40
1976;DHT22;988;48.016;7.800;2023-06-05T10:19:36;43.80;27.60
1976;DHT22;988;48.016;7.800;2023-06-05T10:22:06;44.20;27.20
1976;DHT22;988;48.016;7.800;2023-06-05T10:24:37;44.40;27.40
1976;DHT22;988;48.016;7.800;2023-06-05T10:35:23;44.00;28.00
1976;DHT22;988;48.016;7.800;2023-06-05T10:40:25;43.30;28.60
1976;DHT22;988;48.016;7.800;2023-06-05T10:42:51;43.30;28.20
1976;DHT22;988;48.016;7.800;2023-06-05T10:45:32;42.80;27.90
1976;DHT22;988;48.016;7.800;2023-06-05T10:47:58;43.10;27.80
1976;DHT22;988;48.016;7.800;2023-06-05T10:50:24;42.60;28.60
1976;DHT22;988;48.016;7.800;2023-06-05T10:52:53;42.30;28.60
1976;DHT22;988;48.016;7.800;2023-06-05T10:55:21;42.70;29.00
1976;DHT22;988;48.016;7.800;2023-06-05T11:00:21;42.70;28.40
1976;DHT22;988;48.016;7.800;2023-06-05T11:02:48;42.70;28.60
1976;DHT22;988;48.016;7.800;2023-06-05T11:05:14;42.40;28.60
1976;DHT22;988;48.016;7.800;2023-06-05T11:07:41;42.70;28.80
1976;DHT22;988;48.016;7.800;2023-06-05T11:10:18;43.10;28.10
1976;DHT22;988;48.016;7.800;2023-06-05T11:15:13;43.00;27.80
1976;DHT22;988;48.016;7.800;2023-06-05T11:17:40;43.80;27.70
1976;DHT22;988;48.016;7.800;2023-06-05T11:20:07;43.30;27.50
1976;DHT22;988;48.016;7.800;2023-06-05T11:27:51;43.70;26.40
1976;DHT22;988;48.016;7.800;2023-06-05T11:30:19;43.80;27.00
1976;DHT22;988;48.016;7.800;2023-06-05T11:32:46;44.40;26.40
1976;DHT22;988;48.016;7.800;2023-06-05T11:35:12;43.60;26.30
1976;DHT22;988;48.016;7.800;2023-06-05T11:37:38;43.10;26.30
1976;DHT22;988;48.016;7.800;2023-06-05T11:40:08;42.40;26.40
1976;DHT22;988;48.016;7.800;2023-06-05T11:42:37;43.40;26.60
1976;DHT22;988;48.016;7.800;2023-06-05T11:45:13;43.60;26.40
1976;DHT22;988;48.016;7.800;2023-06-05T11:47:40;43.60;26.20
1976;DHT22;988;48.016;7.800;2023-06-05T11:50:12;42.90;26.90
1976;DHT22;988;48.016;7.800;2023-06-05T11:52:39;43.50;26.90
1976;DHT22;988;48.016;7.800;2023-06-05T11:57:42;43.20;26.90
1976;DHT22;988;48.016;7.800;2023-06-05T12:00:09;43.60;26.60
1976;DHT22;988;48.016;7.800;2023-06-05T12:02:37;44.30;26.50
1976;DHT22;988;48.016;7.800;2023-06-05T12:05:04;45.10;25.80
1976;DHT22;988;48.016;7.800;2023-06-05T12:07:31;44.70;25.80
1976;DHT22;988;48.016;7.800;2023-06-05T12:10:02;44.00;26.20
1976;DHT22;988;48.016;7.800;2023-06-05T12:12:29;43.60;25.90
1976;DHT22;988;48.016;7.800;2023-06-05T12:14:55;43.30;26.40
1976;DHT22;988;48.016;7.800;2023-06-05T12:17:21;43.00;25.90
1976;DHT22;988;48.016;7.800;2023-06-05T12:19:54;43.40;27.10
1976;DHT22;988;48.016;7.800;2023-06-05T12:22:20;43.50;26.50
1976;DHT22;988;48.016;7.800;2023-06-05T12:24:46;43.70;26.60
1976;DHT22;988;48.016;7.800;2023-06-05T12:27:12;43.50;26.50
1976;DHT22;988;48.016;7.800;2023-06-05T12:29:39;43.50;26.30
1976;DHT22;988;48.016;7.800;2023-06-05T12:32:24;42.30;27.00
1976;DHT22;988;48.016;7.800;2023-06-05T12:34:51;41.50;27.50
1976;DHT22;988;48.016;7.800;2023-06-05T12:37:34;41.60;27.30
1976;DHT22;988;48.016;7.800;2023-06-05T12:40:05;42.40;26.90
1976;DHT22;988;48.016;7.800;2023-06-05T12:42:34;42.10;26.30
1976;DHT22;988;48.016;7.800;2023-06-05T12:45:04;41.30;26.80
1976;DHT22;988;48.016;7.800;2023-06-05T12:47:30;40.80;27.30
1976;DHT22;988;48.016;7.800;2023-06-05T12:49:56;40.30;28.20
1976;DHT22;988;48.016;7.800;2023-06-05T12:52:24;40.70;27.50
1976;DHT22;988;48.016;7.800;2023-06-05T12:54:55;41.00;27.90
1976;DHT22;988;48.016;7.800;2023-06-05T12:57:25;41.40;27.20
1976;DHT22;988;48.016;7.800;2023-06-05T12:59:53;41.00;27.00
1976;DHT22;988;48.016;7.800;2023-06-05T13:02:19;39.90;27.90
1976;DHT22;988;48.016;7.800;2023-06-05T13:04:45;39.80;27.90
1976;DHT22;988;48.016;7.800;2023-06-05T13:07:11;40.10;28.00
1976;DHT22;988;48.016;7.800;2023-06-05T13:09:37;40.20;28.20
1976;DHT22;988;48.016;7.800;2023-06-05T13:12:04;39.50;28.20
1976;DHT22;988;48.016;7.800;2023-06-05T13:14:31;39.00;28.80
1976;DHT22;988;48.016;7.800;2023-06-05T13:16:57;39.30;28.60
1976;DHT22;988;48.016;7.800;2023-06-05T13:19:24;39.30;28.40
1976;DHT22;988;48.016;7.800;2023-06-05T13:21:51;39.20;28.60
1976;DHT22;988;48.016;7.800;2023-06-05T13:24:17;39.60;29.00
1976;DHT22;988;48.016;7.800;2023-06-05T13:26:43;39.00;28.40
1976;DHT22;988;48.016;7.800;2023-06-05T13:29:09;38.70;28.90
1976;DHT22;988;48.016;7.800;2023-06-05T13:31:35;38.70;29.60
1976;DHT22;988;48.016;7.800;2023-06-05T13:34:01;38.30;29.50
1976;DHT22;988;48.016;7.800;2023-06-05T13:36:27;38.30;28.60
1976;DHT22;988;48.016;7.800;2023-06-05T13:38:53;37.90;28.90
1976;DHT22;988;48.016;7.800;2023-06-05T13:41:19;37.20;29.40
1976;DHT22;988;48.016;7.800;2023-06-05T13:43:44;36.80;29.80
1976;DHT22;988;48.016;7.800;2023-06-05T13:46:10;36.50;30.00
1976;DHT22;988;48.016;7.800;2023-06-05T13:48:36;36.30;30.80
1976;DHT22;988;48.016;7.800;2023-06-05T13:51:03;36.20;30.90
1976;DHT22;988;48.016;7.800;2023-06-05T13:53:29;36.50;31.00
1976;DHT22;988;48.016;7.800;2023-06-05T13:56:00;36.50;30.40
1976;DHT22;988;48.016;7.800;2023-06-05T13:58:26;36.30;30.70
1976;DHT22;988;48.016;7.800;2023-06-05T14:00:52;36.10;30.60
1976;DHT22;988;48.016;7.800;2023-06-05T14:03:20;35.90;31.00
1976;DHT22;988;48.016;7.800;2023-06-05T14:05:46;35.40;31.60
1976;DHT22;988;48.016;7.800;2023-06-05T14:08:11;35.80;31.60
1976;DHT22;988;48.016;7.800;2023-06-05T14:10:37;36.00;31.20
1976;DHT22;988;48.016;7.800;2023-06-05T14:13:03;35.90;32.30
1976;DHT22;988;48.016;7.800;2023-06-05T14:15:31;36.00;31.70
1976;DHT22;988;48.016;7.800;2023-06-05T14:17:57;35.80;31.30
1976;DHT22;988;48.016;7.800;2023-06-05T14:20:23;35.40;32.00
1976;DHT22;988;48.016;7.800;2023-06-05T14:22:49;35.40;32.00
1976;DHT22;988;48.016;7.800;2023-06-05T14:25:15;35.00;32.50
1976;DHT22;988;48.016;7.800;2023-06-05T14:27:40;34.60;33.90
1976;DHT22;988;48.016;7.800;2023-06-05T14:30:07;33.90;34.00
1976;DHT22;988;48.016;7.800;2023-06-05T14:32:34;33.80;35.00
1976;DHT22;988;48.016;7.800;2023-06-05T14:35:00;34.10;34.70
1976;DHT22;988;48.016;7.800;2023-06-05T14:37:26;33.80;34.00
1976;DHT22;988;48.016;7.800;2023-06-05T14:39:51;33.80;35.00
1976;DHT22;988;48.016;7.800;2023-06-05T14:42:17;33.80;34.60
1976;DHT22;988;48.016;7.800;2023-06-05T14:44:43;33.70;34.40
1976;DHT22;988;48.016;7.800;2023-06-05T14:47:08;33.50;35.60
1976;DHT22;988;48.016;7.800;2023-06-05T14:49:34;33.60;35.40
1976;DHT22;988;48.016;7.800;2023-06-05T14:51:59;33.80;35.30
1976;DHT22;988;48.016;7.800;2023-06-05T14:54:25;33.30;35.50
1976;DHT22;988;48.016;7.800;2023-06-05T14:56:51;33.10;35.60
1976;DHT22;988;48.016;7.800;2023-06-05T14:59:16;32.90;36.90
1976;DHT22;988;48.016;7.800;2023-06-05T15:01:42;32.80;36.40
1976;DHT22;988;48.016;7.800;2023-06-05T15:04:07;32.60;36.70
1976;DHT22;988;48.016;7.800;2023-06-05T15:06:33;32.40;37.20
1976;DHT22;988;48.016;7.800;2023-06-05T15:08:59;32.10;37.90
1976;DHT22;988;48.016;7.800;2023-06-05T15:11:24;31.80;38.40
1976;DHT22;988;48.016;7.800;2023-06-05T15:13:50;31.70;38.80
1976;DHT22;988;48.016;7.800;2023-06-05T15:16:15;31.90;39.60
1976;DHT22;988;48.016;7.800;2023-06-05T15:18:41;32.00;40.00
1976;DHT22;988;48.016;7.800;2023-06-05T15:21:06;32.10;40.00
1976;DHT22;988;48.016;7.800;2023-06-05T15:23:32;31.90;40.20
1976;DHT22;988;48.016;7.800;2023-06-05T15:25:58;32.10;40.30
1976;DHT22;988;48.016;7.800;2023-06-05T15:28:23;31.90;40.00
1976;DHT22;988;48.016;7.800;2023-06-05T15:30:49;31.70;40.40
1976;DHT22;988;48.016;7.800;2023-06-05T15:33:15;31.80;40.90
1976;DHT22;988;48.016;7.800;2023-06-05T15:35:44;31.80;40.40
1976;DHT22;988;48.016;7.800;2023-06-05T15:38:11;31.60;40.80
1976;DHT22;988;48.016;7.800;2023-06-05T15:40:37;31.70;41.40
1976;DHT22;988;48.016;7.800;2023-06-05T15:43:07;31.80;41.50
1976;DHT22;988;48.016;7.800;2023-06-05T15:45:34;31.90;42.30
1976;DHT22;988;48.016;7.800;2023-06-05T15:48:00;31.70;42.10
1976;DHT22;988;48.016;7.800;2023-06-05T15:50:26;31.00;42.60
1976;DHT22;988;48.016;7.800;2023-06-05T15:52:52;30.90;42.50
1976;DHT22;988;48.016;7.800;2023-06-05T15:55:17;30.90;42.80
1976;DHT22;988;48.016;7.800;2023-06-05T15:57:43;30.80;42.90
1976;DHT22;988;48.016;7.800;2023-06-05T16:00:11;30.60;42.70
1976;DHT22;988;48.016;7.800;2023-06-05T16:02:37;30.70;42.70
1976;DHT22;988;48.016;7.800;2023-06-05T16:05:05;30.70;43.50
1976;DHT22;988;48.016;7.800;2023-06-05T16:07:30;30.50;42.80
1976;DHT22;988;48.016;7.800;2023-06-05T16:09:56;30.60;42.80
1976;DHT22;988;48.016;7.800;2023-06-05T16:12:21;30.30;43.30
1976;DHT22;988;48.016;7.800;2023-06-05T16:14:47;30.40;43.30
1976;DHT22;988;48.016;7.800;2023-06-05T16:17:13;30.40;43.50
1976;DHT22;988;48.016;7.800;2023-06-05T16:19:39;30.70;42.70
1976;DHT22;988;48.016;7.800;2023-06-05T16:22:04;30.60;42.60
1976;DHT22;988;48.016;7.800;2023-06-05T16:24:30;30.40;42.70
1976;DHT22;988;48.016;7.800;2023-06-05T16:26:57;30.20;42.90
1976;DHT22;988;48.016;7.800;2023-06-05T16:29:23;30.30;43.30
1976;DHT22;988;48.016;7.800;2023-06-05T16:31:49;30.20;43.00
1976;DHT22;988;48.016;7.800;2023-06-05T16:34:14;30.00;43.30
1976;DHT22;988;48.016;7.800;2023-06-05T16:36:40;30.20;43.50
1976;DHT22;988;48.016;7.800;2023-06-05T16:39:06;30.10;42.40
1976;DHT22;988;48.016;7.800;2023-06-05T16:41:36;29.80;44.00
1976;DHT22;988;48.016;7.800;2023-06-05T16:44:02;29.90;42.90
1976;DHT22;988;48.016;7.800;2023-06-05T16:46:28;29.80;42.40
1976;DHT22;988;48.016;7.800;2023-06-05T16:48:53;29.70;42.10
1976;DHT22;988;48.016;7.800;2023-06-05T16:51:20;29.20;42.50
1976;DHT22;988;48.016;7.800;2023-06-05T16:53:47;29.10;42.90